createdAt,value
2023-02-08T00:01:45.311Z,2.87
2023-02-08T00:04:14.860Z,2.80
2023-02-08T00:06:44.296Z,2.60
2023-02-08T00:09:14.253Z,2.90
2023-02-08T00:11:43.690Z,3.00
2023-02-08T00:14:13.316Z,3.20
2023-02-08T00:16:42.921Z,3.00
2023-02-08T00:19:12.381Z,2.83
2023-02-08T00:21:42.173Z,3.00
2023-02-08T00:24:11.731Z,2.90
2023-02-08T00:26:41.204Z,2.73
2023-02-08T00:29:10.640Z,3.20
2023-02-08T00:31:40.305Z,3.03
2023-02-08T00:34:09.781Z,2.83
2023-02-08T00:36:39.225Z,2.73
2023-02-08T00:39:08.962Z,2.93
2023-02-08T00:41:38.430Z,2.97
2023-02-08T00:44:07.996Z,3.20
2023-02-08T00:46:37.506Z,3.73
2023-02-08T00:49:07.140Z,3.90
2023-02-08T00:51:36.588Z,3.50
2023-02-08T00:54:06.048Z,3.47
2023-02-08T00:56:35.480Z,3.80
2023-02-08T00:59:05.301Z,3.80
2023-02-08T01:01:35.033Z,3.70
2023-02-08T01:04:04.884Z,3.70
2023-02-08T01:06:34.940Z,3.33
2023-02-08T01:09:04.864Z,4.40
2023-02-08T01:11:34.972Z,5.60
2023-02-08T01:14:04.435Z,4.87
2023-02-08T01:16:35.143Z,4.70
2023-02-08T01:19:06.292Z,4.70
2023-02-08T01:21:40.282Z,5.23
2023-02-08T01:24:10.852Z,5.30
2023-02-08T01:26:40.934Z,4.90
2023-02-08T01:29:10.631Z,4.90
2023-02-08T01:31:43.287Z,4.37
2023-02-08T01:34:14.138Z,4.63
2023-02-08T01:36:43.638Z,5.50
2023-02-08T01:39:13.937Z,5.93
2023-02-08T01:41:46.567Z,5.07
2023-02-08T01:44:20.909Z,5.27
2023-02-08T01:46:51.735Z,4.97
2023-02-08T01:49:34.751Z,5.10
2023-02-08T01:52:08.822Z,4.73
2023-02-08T01:54:58.005Z,4.47
2023-02-08T01:57:28.546Z,5.60
2023-02-08T02:00:23.324Z,4.67
2023-02-08T02:02:56.547Z,3.67
2023-02-08T02:05:30.963Z,3.93
2023-02-08T02:08:01.225Z,4.37
2023-02-08T02:10:38.276Z,3.90
2023-02-08T02:13:19.025Z,3.97
2023-02-08T02:15:50.574Z,3.40
2023-02-08T02:18:29.979Z,3.43
2023-02-08T02:21:33.761Z,3.63
2023-02-08T02:24:23.004Z,3.50
2023-02-08T02:27:36.319Z,3.43
2023-02-08T02:30:34.726Z,3.47
2023-02-08T02:33:11.666Z,3.13
2023-02-08T02:36:31.698Z,2.97
2023-02-08T02:39:23.506Z,2.93
2023-02-08T02:42:24.726Z,2.83
2023-02-08T02:45:14.113Z,5.30
2023-02-08T02:48:10.595Z,4.83
2023-02-08T02:50:44.650Z,4.07
2023-02-08T02:53:27.337Z,3.67
2023-02-08T02:56:08.152Z,3.70
2023-02-08T02:58:41.019Z,3.73
2023-02-08T03:01:10.484Z,3.53
2023-02-08T03:03:40.175Z,3.80
2023-02-08T03:06:17.100Z,3.87
2023-02-08T03:08:56.660Z,3.73
2023-02-08T03:11:30.719Z,3.00
2023-02-08T03:14:22.574Z,2.83
2023-02-08T03:17:05.610Z,2.60
2023-02-08T03:19:42.692Z,2.43
2023-02-08T03:22:22.731Z,2.70
2023-02-08T03:24:56.431Z,2.70
2023-02-08T03:28:10.917Z,3.30
2023-02-08T03:30:46.031Z,2.57
2023-02-08T03:33:22.844Z,2.27
2023-02-08T03:36:17.431Z,2.40
2023-02-08T03:38:51.091Z,2.13
2023-02-08T03:41:28.005Z,2.40
2023-02-08T03:44:13.930Z,2.67
2023-02-08T03:46:59.881Z,2.30
2023-02-08T03:49:33.901Z,2.93
2023-02-08T03:52:07.585Z,3.03
2023-02-08T03:54:47.638Z,3.20
2023-02-08T03:57:33.630Z,3.40
2023-02-08T04:00:10.265Z,2.90
2023-02-08T04:02:44.349Z,3.23
2023-02-08T04:05:14.662Z,2.93
2023-02-08T04:07:44.117Z,2.80
2023-02-08T04:10:13.568Z,2.83
2023-02-08T04:12:43.084Z,2.33
2023-02-08T04:15:12.548Z,2.60
2023-02-08T04:17:42.235Z,2.30
2023-02-08T04:20:12.297Z,2.37
2023-02-08T04:22:41.997Z,2.30
2023-02-08T04:25:12.206Z,2.33
2023-02-08T04:27:41.637Z,2.43
2023-02-08T04:30:12.316Z,2.13
2023-02-08T04:32:41.800Z,2.23
2023-02-08T04:35:11.499Z,1.77
2023-02-08T04:37:40.980Z,2.10
2023-02-08T04:40:11.844Z,2.43
2023-02-08T04:42:41.271Z,2.53
2023-02-08T04:45:11.796Z,2.60
2023-02-08T04:47:41.219Z,2.60
2023-02-08T04:50:10.832Z,2.30
2023-02-08T04:52:40.254Z,2.47
2023-02-08T04:55:10.154Z,2.57
2023-02-08T04:57:39.580Z,2.50
2023-02-08T05:00:10.313Z,2.30
2023-02-08T05:02:39.744Z,2.30
2023-02-08T05:05:09.882Z,2.20
2023-02-08T05:07:39.345Z,2.03
2023-02-08T05:10:09.886Z,2.00
2023-02-08T05:12:39.400Z,2.80
2023-02-08T05:15:09.659Z,2.67
2023-02-08T05:17:39.173Z,2.53
2023-02-08T05:20:10.319Z,2.60
2023-02-08T05:22:40.138Z,2.83
2023-02-08T05:25:10.074Z,2.90
2023-02-08T05:27:39.966Z,2.70
2023-02-08T05:30:10.300Z,2.20
2023-02-08T05:32:39.810Z,2.33
2023-02-08T05:35:09.670Z,2.77
2023-02-08T05:37:39.110Z,2.97
2023-02-08T05:40:09.641Z,3.60
2023-02-08T05:42:39.097Z,3.10
2023-02-08T05:45:08.967Z,2.87
2023-02-08T05:47:38.905Z,2.40
2023-02-08T05:50:08.805Z,2.97
2023-02-08T05:52:38.255Z,2.67
2023-02-08T05:55:08.516Z,4.27
2023-02-08T05:57:38.160Z,3.83
2023-02-08T06:00:08.972Z,3.20
2023-02-08T06:02:38.433Z,2.70
2023-02-08T06:05:08.579Z,3.57
2023-02-08T06:07:38.020Z,4.00
2023-02-08T06:10:07.956Z,3.23
2023-02-08T06:12:37.964Z,3.30
2023-02-08T06:15:07.642Z,4.20
2023-02-08T06:17:37.304Z,3.50
2023-02-08T06:20:07.564Z,3.40
2023-02-08T06:22:37.933Z,2.40
2023-02-08T06:25:08.073Z,2.77
2023-02-08T06:27:37.942Z,2.60
2023-02-08T06:30:07.582Z,2.60
2023-02-08T06:32:37.161Z,2.33
2023-02-08T06:35:06.912Z,2.53
2023-02-08T06:37:36.390Z,2.30
2023-02-08T06:40:06.935Z,2.40
2023-02-08T06:42:36.396Z,2.60
2023-02-08T06:45:08.392Z,2.63
2023-02-08T06:47:37.834Z,2.07
2023-02-08T06:50:07.733Z,2.40
2023-02-08T06:52:37.505Z,2.90
2023-02-08T06:55:07.728Z,2.77
2023-02-08T06:57:37.194Z,2.43
2023-02-08T07:00:09.026Z,2.87
2023-02-08T07:02:38.643Z,2.93
2023-02-08T07:05:08.403Z,2.70
2023-02-08T07:07:37.865Z,3.17
2023-02-08T07:10:07.972Z,3.07
2023-02-08T07:12:38.862Z,2.53
2023-02-08T07:15:08.896Z,3.37
2023-02-08T07:17:38.354Z,3.57
2023-02-08T07:20:08.727Z,3.60
2023-02-08T07:22:38.436Z,3.43
2023-02-08T07:25:09.007Z,2.70
2023-02-08T07:27:38.838Z,3.13
2023-02-08T07:30:09.396Z,3.87
2023-02-08T07:32:38.845Z,4.10
2023-02-08T07:35:08.888Z,3.47
2023-02-08T07:37:38.353Z,3.13
2023-02-08T07:40:08.426Z,3.40
2023-02-08T07:42:37.896Z,3.47
2023-02-08T07:45:07.647Z,4.27
2023-02-08T07:47:37.122Z,5.17
2023-02-08T07:50:06.869Z,4.70
2023-02-08T07:52:36.322Z,4.07
2023-02-08T07:55:05.836Z,3.50
2023-02-08T07:57:35.304Z,4.73
2023-02-08T08:00:05.364Z,5.40
2023-02-08T08:02:34.798Z,5.37
2023-02-08T08:05:04.409Z,5.63
2023-02-08T08:07:33.858Z,4.33
2023-02-08T08:10:03.391Z,5.10
2023-02-08T08:12:32.860Z,4.43
2023-02-08T08:15:02.288Z,3.90
2023-02-08T08:17:31.753Z,4.70
2023-02-08T08:20:01.200Z,4.40
2023-02-08T08:22:30.656Z,4.73
2023-02-08T08:25:00.164Z,4.60
2023-02-08T08:27:29.662Z,5.97
2023-02-08T08:29:59.975Z,5.90
2023-02-08T08:32:29.882Z,7.53
2023-02-08T08:34:59.315Z,8.53
2023-02-08T08:37:28.786Z,7.03
2023-02-08T08:39:58.603Z,6.80
2023-02-08T08:42:28.050Z,6.27
2023-02-08T08:44:57.565Z,5.90
2023-02-08T08:47:27.079Z,6.10
2023-02-08T08:49:56.518Z,6.17
2023-02-08T08:52:26.418Z,7.03
2023-02-08T08:54:55.934Z,5.87
2023-02-08T08:57:25.454Z,7.10
2023-02-08T08:59:54.924Z,6.63
2023-02-08T09:02:24.358Z,6.97
2023-02-08T09:04:53.894Z,9.13
2023-02-08T09:07:23.343Z,8.10
2023-02-08T09:09:52.785Z,7.80
2023-02-08T09:12:22.302Z,6.23
2023-02-08T09:14:51.798Z,6.20
2023-02-08T09:17:21.280Z,5.17
2023-02-08T09:19:50.730Z,8.00
2023-02-08T09:22:20.266Z,9.77
2023-02-08T09:24:49.694Z,10.43
2023-02-08T09:27:19.184Z,8.70
2023-02-08T09:29:48.653Z,9.93
2023-02-08T09:32:18.456Z,8.20
2023-02-08T09:34:48.087Z,9.00
2023-02-08T09:37:18.271Z,10.37
2023-02-08T09:39:47.771Z,10.83
2023-02-08T09:42:42.825Z,13.07
2023-02-08T09:46:01.147Z,13.07
2023-02-08T09:48:40.093Z,13.33
2023-02-08T09:51:36.552Z,12.50
2023-02-08T09:54:22.349Z,10.83
2023-02-08T09:56:54.498Z,8.70
2023-02-08T09:59:31.882Z,9.27
2023-02-08T10:02:20.768Z,11.22
2023-02-08T10:05:15.695Z,11.13
2023-02-08T10:07:45.675Z,10.30
2023-02-08T10:10:22.344Z,9.57
2023-02-08T10:12:56.402Z,9.30
2023-02-08T10:15:33.486Z,7.97
2023-02-08T10:18:10.471Z,7.63
2023-02-08T10:21:00.876Z,11.03
2023-02-08T10:23:53.934Z,12.63
2023-02-08T10:26:52.152Z,11.67
2023-02-08T10:29:44.447Z,11.47
2023-02-08T10:32:39.351Z,12.03
2023-02-08T10:35:15.662Z,11.17
2023-02-08T10:37:48.122Z,11.63
2023-02-08T10:40:37.223Z,10.67
2023-02-08T10:43:29.309Z,11.47
2023-02-08T10:46:06.322Z,14.67
2023-02-08T10:49:21.229Z,12.63
2023-02-08T10:51:51.378Z,13.10
2023-02-08T10:54:20.937Z,11.90
2023-02-08T10:57:02.936Z,12.13
2023-02-08T10:59:41.442Z,11.53
2023-02-08T11:02:36.230Z,11.60
2023-02-08T11:05:13.286Z,11.03
2023-02-08T11:07:43.126Z,11.67
2023-02-08T11:10:22.818Z,13.30
2023-02-08T11:13:08.962Z,11.77
2023-02-08T11:15:48.339Z,12.23
2023-02-08T11:18:28.398Z,13.57
2023-02-08T11:21:02.304Z,13.83
2023-02-08T11:23:36.377Z,11.77
2023-02-08T11:26:27.928Z,12.07
2023-02-08T11:29:24.573Z,11.33
2023-02-08T11:32:01.269Z,10.20
2023-02-08T11:34:39.072Z,10.53
2023-02-08T11:37:28.474Z,12.87
2023-02-08T11:40:03.763Z,13.07
2023-02-08T11:42:47.017Z,11.40
2023-02-08T11:45:23.941Z,13.67
2023-02-08T11:47:55.018Z,15.70
2023-02-08T11:50:39.739Z,14.23
2023-02-08T11:53:24.382Z,12.60
2023-02-08T11:56:09.969Z,11.80
2023-02-08T11:58:39.421Z,13.60
2023-02-08T12:01:21.553Z,12.70
2023-02-08T12:03:52.399Z,11.50
2023-02-08T12:06:47.433Z,11.90
2023-02-08T12:09:57.565Z,12.37
2023-02-08T12:12:47.132Z,10.20
2023-02-08T12:15:57.855Z,9.60
2023-02-08T12:18:40.797Z,8.00
2023-02-08T12:21:32.731Z,8.95
2023-02-08T12:24:27.158Z,9.07
2023-02-08T12:27:04.042Z,10.47
2023-02-08T12:29:58.895Z,10.67
2023-02-08T12:33:12.230Z,12.00
2023-02-08T12:36:07.808Z,12.67
2023-02-08T12:39:26.938Z,12.23
2023-02-08T12:42:18.983Z,10.75
2023-02-08T12:44:58.122Z,10.90
2023-02-08T12:47:37.882Z,14.83
2023-02-08T12:50:35.960Z,12.57
2023-02-08T12:53:29.026Z,10.80
2023-02-08T12:56:02.739Z,10.40
2023-02-08T12:58:42.649Z,10.90
2023-02-08T13:01:16.839Z,11.10
2023-02-08T13:03:56.836Z,13.07
2023-02-08T13:06:33.839Z,11.17
2023-02-08T13:09:35.933Z,10.67
2023-02-08T13:12:26.851Z,10.80
2023-02-08T13:15:24.830Z,10.77
2023-02-08T13:17:54.685Z,13.17
2023-02-08T13:20:52.525Z,11.33
2023-02-08T13:23:29.294Z,12.10
2023-02-08T13:26:02.991Z,9.27
2023-02-08T13:28:32.764Z,10.30
2023-02-08T13:31:25.360Z,10.63
2023-02-08T13:34:06.821Z,8.87
2023-02-08T13:36:40.094Z,7.10
2023-02-08T13:39:14.036Z,7.70
2023-02-08T13:41:48.185Z,9.67
2023-02-08T13:44:25.053Z,10.47
2023-02-08T13:46:54.577Z,11.57
2023-02-08T13:49:55.961Z,11.00
2023-02-08T13:52:48.521Z,9.40
2023-02-08T13:55:37.362Z,10.83
2023-02-08T13:58:40.816Z,9.60
2023-02-08T14:01:28.979Z,10.77
2023-02-08T14:04:15.006Z,11.27
2023-02-08T14:06:57.959Z,9.23
2023-02-08T14:09:34.654Z,7.50
2023-02-08T14:12:34.423Z,8.20
2023-02-08T14:15:25.138Z,9.37
2023-02-08T14:17:59.452Z,9.07
2023-02-08T14:20:40.129Z,7.67
2023-02-08T14:23:26.136Z,9.07
2023-02-08T14:25:58.894Z,9.67
2023-02-08T14:28:41.503Z,8.00
2023-02-08T14:31:13.986Z,10.60
2023-02-08T14:33:56.834Z,10.30
2023-02-08T14:36:39.654Z,10.57
2023-02-08T14:39:29.179Z,13.80
2023-02-08T14:42:09.040Z,10.17
2023-02-08T14:44:48.223Z,11.17
2023-02-08T14:47:32.633Z,13.57
2023-02-08T14:50:21.005Z,12.03
2023-02-08T14:53:03.964Z,9.67
2023-02-08T14:55:53.290Z,8.60
2023-02-08T14:58:35.785Z,11.57
2023-02-08T15:01:09.996Z,9.77
2023-02-08T15:03:43.078Z,8.07
2023-02-08T15:06:39.897Z,8.53
2023-02-08T15:09:25.486Z,8.23
2023-02-08T15:12:08.304Z,7.70
2023-02-08T15:14:41.413Z,8.53
2023-02-08T15:17:24.050Z,7.50
2023-02-08T15:19:55.310Z,8.33
2023-02-08T15:22:37.798Z,7.07
2023-02-08T15:25:35.096Z,6.67
2023-02-08T15:28:17.544Z,5.37
2023-02-08T15:30:49.305Z,6.17
2023-02-08T15:33:19.704Z,7.00
2023-02-08T15:36:09.950Z,5.37
2023-02-08T15:38:43.607Z,4.90
2023-02-08T15:41:17.431Z,4.60
2023-02-08T15:43:47.239Z,3.83
2023-02-08T15:46:23.949Z,3.90
2023-02-08T15:48:57.413Z,3.43
2023-02-08T15:51:28.890Z,3.00
2023-02-08T15:53:58.844Z,4.73
2023-02-08T15:56:38.666Z,4.60
2023-02-08T15:59:10.747Z,3.53
2023-02-08T16:01:40.174Z,3.20
2023-02-08T16:04:11.289Z,3.50
2023-02-08T16:06:48.048Z,3.97
2023-02-08T16:09:28.903Z,4.00
2023-02-08T16:12:02.631Z,4.33
2023-02-08T16:14:43.883Z,5.47
2023-02-08T16:17:04.239Z,6.60
2023-02-08T16:19:35.245Z,4.70
2023-02-08T16:22:25.772Z,5.00
2023-02-08T16:24:55.917Z,4.10
2023-02-08T16:27:33.666Z,6.87
2023-02-08T16:30:03.315Z,5.60
2023-02-08T16:32:39.623Z,6.30
2023-02-08T16:35:18.496Z,5.73
2023-02-08T16:37:51.151Z,7.30
2023-02-08T16:40:47.787Z,7.50
2023-02-08T16:43:29.388Z,9.77
2023-02-08T16:46:25.378Z,9.10
2023-02-08T16:48:59.109Z,8.43
2023-02-08T16:51:35.760Z,7.50
2023-02-08T16:54:08.309Z,9.20
2023-02-08T16:56:38.979Z,12.80
2023-02-08T16:59:09.522Z,11.10
2023-02-08T17:01:39.262Z,11.47
2023-02-08T17:04:08.675Z,12.90
2023-02-08T17:06:42.090Z,11.93
2023-02-08T17:09:14.844Z,10.03
2023-02-08T17:11:44.529Z,9.27
2023-02-08T17:14:13.963Z,7.10
2023-02-08T17:16:43.918Z,7.67
2023-02-08T17:19:19.149Z,7.90
2023-02-08T17:21:48.916Z,5.40
2023-02-08T17:24:18.624Z,4.63
2023-02-08T17:26:48.731Z,4.50
2023-02-08T17:29:18.655Z,3.83
2023-02-08T17:31:50.438Z,5.20
2023-02-08T17:34:21.356Z,4.50
2023-02-08T17:36:51.093Z,4.30
2023-02-08T17:39:20.911Z,3.73
2023-02-08T17:41:50.870Z,3.63
2023-02-08T17:44:20.855Z,3.17
2023-02-08T17:46:50.732Z,4.80
2023-02-08T17:49:20.555Z,3.70
2023-02-08T17:51:50.010Z,3.40
2023-02-08T17:54:20.909Z,3.20
2023-02-08T17:56:51.973Z,3.17
2023-02-08T17:59:22.273Z,3.33
2023-02-08T18:01:51.834Z,3.67
2023-02-08T18:04:21.300Z,3.13
2023-02-08T18:06:50.723Z,3.20
2023-02-08T18:09:20.149Z,3.70
2023-02-08T18:11:49.582Z,3.80
2023-02-08T18:14:19.087Z,4.37
2023-02-08T18:16:48.538Z,4.83
2023-02-08T18:19:18.950Z,5.87
2023-02-08T18:21:48.386Z,4.80
2023-02-08T18:24:18.793Z,3.47
2023-02-08T18:26:48.313Z,5.13
2023-02-08T18:29:17.733Z,4.43
2023-02-08T18:31:47.332Z,4.00
2023-02-08T18:34:17.381Z,5.00
2023-02-08T18:36:48.378Z,4.77
2023-02-08T18:39:19.442Z,6.20
2023-02-08T18:41:49.282Z,5.45
2023-02-08T18:44:21.008Z,5.60
2023-02-08T18:46:50.958Z,5.40
2023-02-08T18:49:20.491Z,5.63
2023-02-08T18:51:50.278Z,5.10
2023-02-08T18:54:20.271Z,4.40
2023-02-08T18:56:54.987Z,5.67
2023-02-08T18:59:24.415Z,5.53
2023-02-08T19:01:53.892Z,4.17
2023-02-08T19:04:23.431Z,4.93
2023-02-08T19:06:53.612Z,4.50
2023-02-08T19:09:23.060Z,3.80
2023-02-08T19:11:52.498Z,3.50
2023-02-08T19:14:21.928Z,3.20
2023-02-08T19:16:51.385Z,4.37
2023-02-08T19:19:20.811Z,3.30
2023-02-08T19:21:50.399Z,3.63
2023-02-08T19:24:22.487Z,3.53
2023-02-08T19:26:51.920Z,3.40
2023-02-08T19:29:22.725Z,3.07
2023-02-08T19:31:52.194Z,2.60
2023-02-08T19:34:21.656Z,2.57
2023-02-08T19:36:56.223Z,2.73
2023-02-08T19:39:28.746Z,2.10
2023-02-08T19:41:58.986Z,2.40
2023-02-08T19:44:30.580Z,2.50
2023-02-08T19:47:00.249Z,2.40
2023-02-08T19:49:29.747Z,2.50
2023-02-08T19:51:59.638Z,2.70
2023-02-08T19:54:29.067Z,2.13
2023-02-08T19:56:58.527Z,2.40
2023-02-08T19:59:35.408Z,2.40
2023-02-08T20:02:06.313Z,5.10
2023-02-08T20:04:35.845Z,3.57
2023-02-08T20:07:07.096Z,3.73
2023-02-08T20:09:37.000Z,3.07
2023-02-08T20:12:07.074Z,3.23
2023-02-08T20:14:36.568Z,2.83
2023-02-08T20:17:06.193Z,2.80
2023-02-08T20:19:38.090Z,2.60
2023-02-08T20:22:07.602Z,4.33
2023-02-08T20:24:37.025Z,3.53
2023-02-08T20:27:06.477Z,3.73
2023-02-08T20:29:35.899Z,4.30
2023-02-08T20:32:05.979Z,3.57
2023-02-08T20:34:35.442Z,3.60
2023-02-08T20:37:07.738Z,3.80
2023-02-08T20:39:37.857Z,4.10
2023-02-08T20:42:07.457Z,3.70
2023-02-08T20:44:36.958Z,3.80
2023-02-08T20:47:06.537Z,3.53
2023-02-08T20:49:36.145Z,3.33
2023-02-08T20:52:05.668Z,3.53
2023-02-08T20:54:35.145Z,4.20
2023-02-08T20:57:04.658Z,4.33
2023-02-08T20:59:34.979Z,3.80
2023-02-08T21:02:05.532Z,5.30
2023-02-08T21:04:35.878Z,5.23
2023-02-08T21:07:05.318Z,5.37
2023-02-08T21:09:34.750Z,4.60
2023-02-08T21:12:04.942Z,4.07
2023-02-08T21:14:34.439Z,3.80
2023-02-08T21:17:04.155Z,2.83
2023-02-08T21:19:33.621Z,3.23
2023-02-08T21:22:04.197Z,2.60
2023-02-08T21:24:33.594Z,2.67
2023-02-08T21:27:03.117Z,2.90
2023-02-08T21:29:32.654Z,3.83
2023-02-08T21:32:02.246Z,2.40
2023-02-08T21:34:31.796Z,3.53
2023-02-08T21:37:01.248Z,3.10
2023-02-08T21:39:30.668Z,2.67
2023-02-08T21:42:00.113Z,2.60
2023-02-08T21:44:30.405Z,2.20
2023-02-08T21:46:59.852Z,2.10
2023-02-08T21:49:47.561Z,2.43
2023-02-08T21:52:35.021Z,2.13
2023-02-08T21:55:04.454Z,2.50
2023-02-08T21:57:35.700Z,2.73
2023-02-08T22:00:08.264Z,3.83
2023-02-08T22:02:37.692Z,3.70
2023-02-08T22:05:25.357Z,4.20
2023-02-08T22:07:58.006Z,4.43
2023-02-08T22:10:32.075Z,4.40
2023-02-08T22:13:01.759Z,5.70
2023-02-08T22:15:34.218Z,5.97
2023-02-08T22:18:05.694Z,4.47
2023-02-08T22:20:35.127Z,3.77
2023-02-08T22:23:04.570Z,3.43
2023-02-08T22:25:34.075Z,3.13
2023-02-08T22:28:04.246Z,3.30
2023-02-08T22:30:33.657Z,3.80
2023-02-08T22:33:03.112Z,3.93
2023-02-08T22:35:32.547Z,3.97
2023-02-08T22:38:02.026Z,3.70
2023-02-08T22:40:31.442Z,3.10
2023-02-08T22:43:00.960Z,3.03
2023-02-08T22:45:30.391Z,3.07
2023-02-08T22:47:59.828Z,3.30
2023-02-08T22:50:29.273Z,2.60
2023-02-08T22:52:58.751Z,2.90
2023-02-08T22:55:28.329Z,2.33
2023-02-08T22:57:58.918Z,2.57
2023-02-08T23:00:28.370Z,2.90
2023-02-08T23:02:57.813Z,2.23
2023-02-08T23:05:27.300Z,2.50
2023-02-08T23:07:56.734Z,2.40
2023-02-08T23:10:26.177Z,2.27
2023-02-08T23:12:55.619Z,2.40
2023-02-08T23:15:25.062Z,2.67
2023-02-08T23:17:55.245Z,2.70
2023-02-08T23:20:25.441Z,2.73
2023-02-08T23:22:54.909Z,2.30
2023-02-08T23:25:24.485Z,2.33
2023-02-08T23:27:54.266Z,2.37
2023-02-08T23:30:23.740Z,2.37
2023-02-08T23:32:53.172Z,2.60
2023-02-08T23:35:22.907Z,3.30
2023-02-08T23:37:52.358Z,3.30
2023-02-08T23:40:21.930Z,2.63
2023-02-08T23:42:51.443Z,2.40
2023-02-08T23:45:20.951Z,3.60
2023-02-08T23:47:50.394Z,3.10
2023-02-08T23:50:19.836Z,2.30
2023-02-08T23:52:49.270Z,2.27
2023-02-08T23:55:18.707Z,2.00
2023-02-08T23:57:48.154Z,2.17
